sensor_id;sensor_type;location;lat;lon;timestamp;pressure;altitude;pressure_sealevel;temperature;humidity
24336;BME280;33098;52.400;16.880;2023-05-20T00:02:14;101869.04;;;14.30;73.71
24336;BME280;33098;52.400;16.880;2023-05-20T00:04:49;101872.13;;;14.30;73.88
24336;BME280;33098;52.400;16.880;2023-05-20T00:07:15;101870.05;;;14.31;74.01
24336;BME280;33098;52.400;16.880;2023-05-20T00:09:43;101866.83;;;14.29;74.20
24336;BME280;33098;52.400;16.880;2023-05-20T00:12:10;101863.91;;;14.29;74.29
24336;BME280;33098;52.400;16.880;2023-05-20T00:14:40;101861.30;;;14.31;74.41
24336;BME280;33098;52.400;16.880;2023-05-20T00:17:06;101858.28;;;14.31;74.42
24336;BME280;33098;52.400;16.880;2023-05-20T00:19:33;101855.90;;;14.31;74.49
24336;BME280;33098;52.400;16.880;2023-05-20T00:22:04;101855.39;;;14.29;74.56
24336;BME280;33098;52.400;16.880;2023-05-20T00:24:32;101855.22;;;14.29;74.66
24336;BME280;33098;52.400;16.880;2023-05-20T00:27:05;101854.48;;;14.29;74.74
24336;BME280;33098;52.400;16.880;2023-05-20T00:29:32;101857.58;;;14.31;74.89
24336;BME280;33098;52.400;16.880;2023-05-20T00:31:59;101851.83;;;14.31;74.99
24336;BME280;33098;52.400;16.880;2023-05-20T00:34:26;101850.13;;;14.30;74.85
24336;BME280;33098;52.400;16.880;2023-05-20T00:36:52;101846.41;;;14.30;75.08
24336;BME280;33098;52.400;16.880;2023-05-20T00:39:20;101844.72;;;14.28;75.12
24336;BME280;33098;52.400;16.880;2023-05-20T00:41:48;101846.09;;;14.27;75.16
24336;BME280;33098;52.400;16.880;2023-05-20T00:44:14;101844.58;;;14.25;75.26
24336;BME280;33098;52.400;16.880;2023-05-20T00:46:41;101848.69;;;14.25;75.34
24336;BME280;33098;52.400;16.880;2023-05-20T00:49:08;101845.30;;;14.22;75.35
24336;BME280;33098;52.400;16.880;2023-05-20T00:51:35;101846.06;;;14.21;75.37
24336;BME280;33098;52.400;16.880;2023-05-20T00:54:02;101843.63;;;14.23;75.40
24336;BME280;33098;52.400;16.880;2023-05-20T00:56:28;101843.46;;;14.23;75.51
24336;BME280;33098;52.400;16.880;2023-05-20T00:58:56;101847.18;;;14.23;75.51
24336;BME280;33098;52.400;16.880;2023-05-20T01:01:27;101848.66;;;14.22;75.60
24336;BME280;33098;52.400;16.880;2023-05-20T01:03:54;101842.52;;;14.16;75.36
24336;BME280;33098;52.400;16.880;2023-05-20T01:06:21;101841.47;;;14.11;75.68
24336;BME280;33098;52.400;16.880;2023-05-20T01:08:47;101838.38;;;14.09;75.70
24336;BME280;33098;52.400;16.880;2023-05-20T01:11:33;101837.91;;;14.08;75.73
24336;BME280;33098;52.400;16.880;2023-05-20T01:14:03;101834.98;;;14.04;75.84
24336;BME280;33098;52.400;16.880;2023-05-20T01:16:32;101832.45;;;14.05;76.06
24336;BME280;33098;52.400;16.880;2023-05-20T01:19:01;101831.11;;;14.09;76.08
24336;BME280;33098;52.400;16.880;2023-05-20T01:21:29;101831.53;;;14.10;76.18
24336;BME280;33098;52.400;16.880;2023-05-20T01:23:57;101831.50;;;14.11;76.15
24336;BME280;33098;52.400;16.880;2023-05-20T01:26:24;101829.34;;;14.13;76.20
24336;BME280;33098;52.400;16.880;2023-05-20T01:28:53;101830.47;;;14.17;76.21
24336;BME280;33098;52.400;16.880;2023-05-20T01:31:25;101830.98;;;14.20;76.18
24336;BME280;33098;52.400;16.880;2023-05-20T01:33:55;101833.11;;;14.18;76.14
24336;BME280;33098;52.400;16.880;2023-05-20T01:36:24;101834.96;;;14.19;76.28
24336;BME280;33098;52.400;16.880;2023-05-20T01:38:53;101833.62;;;14.21;76.35
24336;BME280;33098;52.400;16.880;2023-05-20T01:41:21;101832.47;;;14.25;76.30
24336;BME280;33098;52.400;16.880;2023-05-20T01:43:49;101833.27;;;14.28;76.27
24336;BME280;33098;52.400;16.880;2023-05-20T01:46:16;101830.77;;;14.31;76.25
24336;BME280;33098;52.400;16.880;2023-05-20T01:48:43;101829.10;;;14.32;76.02
24336;BME280;33098;52.400;16.880;2023-05-20T01:51:10;101829.17;;;14.31;75.99
24336;BME280;33098;52.400;16.880;2023-05-20T01:53:36;101826.06;;;14.27;75.92
24336;BME280;33098;52.400;16.880;2023-05-20T01:56:04;101826.49;;;14.23;75.87
24336;BME280;33098;52.400;16.880;2023-05-20T01:58:31;101826.58;;;14.22;75.72
24336;BME280;33098;52.400;16.880;2023-05-20T02:00:58;101826.11;;;14.21;75.85
24336;BME280;33098;52.400;16.880;2023-05-20T02:03:26;101821.06;;;14.16;75.72
24336;BME280;33098;52.400;16.880;2023-05-20T02:05:54;101821.99;;;14.11;75.77
24336;BME280;33098;52.400;16.880;2023-05-20T02:08:22;101818.85;;;14.13;75.88
24336;BME280;33098;52.400;16.880;2023-05-20T02:10:49;101819.40;;;14.17;75.93
24336;BME280;33098;52.400;16.880;2023-05-20T02:13:16;101818.09;;;14.20;75.92
24336;BME280;33098;52.400;16.880;2023-05-20T02:15:43;101810.41;;;14.21;75.78
24336;BME280;33098;52.400;16.880;2023-05-20T02:18:10;101812.75;;;14.20;75.76
24336;BME280;33098;52.400;16.880;2023-05-20T02:20:38;101821.14;;;14.18;75.66
24336;BME280;33098;52.400;16.880;2023-05-20T02:23:05;101817.90;;;14.13;75.56
24336;BME280;33098;52.400;16.880;2023-05-20T02:25:31;101817.66;;;14.12;75.56
24336;BME280;33098;52.400;16.880;2023-05-20T02:27:59;101813.02;;;14.12;75.59
24336;BME280;33098;52.400;16.880;2023-05-20T02:30:30;101814.28;;;14.12;75.61
24336;BME280;33098;52.400;16.880;2023-05-20T02:32:56;101810.06;;;14.16;75.63
24336;BME280;33098;52.400;16.880;2023-05-20T02:35:26;101811.51;;;14.18;75.54
24336;BME280;33098;52.400;16.880;2023-05-20T02:37:56;101814.32;;;14.18;75.50
24336;BME280;33098;52.400;16.880;2023-05-20T02:40:22;101816.98;;;14.21;75.44
24336;BME280;33098;52.400;16.880;2023-05-20T02:42:53;101818.30;;;14.20;75.30
24336;BME280;33098;52.400;16.880;2023-05-20T02:45:20;101821.84;;;14.21;75.22
24336;BME280;33098;52.400;16.880;2023-05-20T02:47:49;101821.29;;;14.21;75.10
24336;BME280;33098;52.400;16.880;2023-05-20T02:50:16;101820.21;;;14.18;75.09
24336;BME280;33098;52.400;16.880;2023-05-20T02:52:42;101823.59;;;14.19;74.94
24336;BME280;33098;52.400;16.880;2023-05-20T02:55:12;101819.88;;;14.16;74.90
24336;BME280;33098;52.400;16.880;2023-05-20T02:57:40;101822.87;;;14.06;74.76
24336;BME280;33098;52.400;16.880;2023-05-20T03:00:08;101825.55;;;14.01;74.89
24336;BME280;33098;52.400;16.880;2023-05-20T03:02:39;101824.15;;;14.01;75.09
24336;BME280;33098;52.400;16.880;2023-05-20T03:05:06;101827.35;;;14.01;75.16
24336;BME280;33098;52.400;16.880;2023-05-20T03:07:35;101833.91;;;13.99;75.23
24336;BME280;33098;52.400;16.880;2023-05-20T03:10:02;101835.38;;;14.01;75.33
24336;BME280;33098;52.400;16.880;2023-05-20T03:12:30;101833.56;;;14.04;75.45
24336;BME280;33098;52.400;16.880;2023-05-20T03:14:56;101836.75;;;14.02;75.40
24336;BME280;33098;52.400;16.880;2023-05-20T03:17:26;101835.45;;;14.03;75.50
24336;BME280;33098;52.400;16.880;2023-05-20T03:19:53;101841.23;;;14.09;75.56
24336;BME280;33098;52.400;16.880;2023-05-20T03:22:22;101842.42;;;14.13;75.52
24336;BME280;33098;52.400;16.880;2023-05-20T03:24:51;101844.72;;;14.13;75.37
24336;BME280;33098;52.400;16.880;2023-05-20T03:27:18;101842.49;;;14.09;75.34
24336;BME280;33098;52.400;16.880;2023-05-20T03:29:45;101838.98;;;14.11;75.41
24336;BME280;33098;52.400;16.880;2023-05-20T03:32:13;101837.92;;;14.08;75.24
24336;BME280;33098;52.400;16.880;2023-05-20T03:34:43;101839.38;;;14.05;75.35
24336;BME280;33098;52.400;16.880;2023-05-20T03:37:09;101841.10;;;14.11;75.53
24336;BME280;33098;52.400;16.880;2023-05-20T03:39:36;101839.11;;;14.12;75.35
24336;BME280;33098;52.400;16.880;2023-05-20T03:42:05;101842.95;;;14.13;75.35
24336;BME280;33098;52.400;16.880;2023-05-20T03:44:34;101848.73;;;14.14;75.34
24336;BME280;33098;52.400;16.880;2023-05-20T03:47:02;101850.58;;;14.16;75.36
24336;BME280;33098;52.400;16.880;2023-05-20T03:49:29;101853.72;;;14.17;75.38
24336;BME280;33098;52.400;16.880;2023-05-20T03:51:58;101852.55;;;14.13;75.32
24336;BME280;33098;52.400;16.880;2023-05-20T03:54:34;101855.38;;;14.11;75.40
24336;BME280;33098;52.400;16.880;2023-05-20T03:57:05;101859.17;;;14.11;75.40
24336;BME280;33098;52.400;16.880;2023-05-20T03:59:36;101858.89;;;14.12;75.49
24336;BME280;33098;52.400;16.880;2023-05-20T04:02:04;101860.91;;;14.19;75.59
24336;BME280;33098;52.400;16.880;2023-05-20T04:04:31;101861.80;;;14.19;75.49
24336;BME280;33098;52.400;16.880;2023-05-20T04:07:00;101864.85;;;14.16;75.33
24336;BME280;33098;52.400;16.880;2023-05-20T04:09:30;101868.09;;;14.11;75.26
24336;BME280;33098;52.400;16.880;2023-05-20T04:11:57;101869.71;;;14.11;75.52
24336;BME280;33098;52.400;16.880;2023-05-20T04:14:27;101869.11;;;14.16;75.59
24336;BME280;33098;52.400;16.880;2023-05-20T04:16:55;101869.02;;;14.20;75.62
24336;BME280;33098;52.400;16.880;2023-05-20T04:19:23;101866.81;;;14.21;75.52
24336;BME280;33098;52.400;16.880;2023-05-20T04:21:53;101865.66;;;14.22;75.58
24336;BME280;33098;52.400;16.880;2023-05-20T04:24:20;101860.88;;;14.24;75.47
24336;BME280;33098;52.400;16.880;2023-05-20T04:26:50;101858.22;;;14.24;75.35
24336;BME280;33098;52.400;16.880;2023-05-20T04:29:18;101861.05;;;14.27;75.54
24336;BME280;33098;52.400;16.880;2023-05-20T04:31:45;101865.44;;;14.31;75.38
24336;BME280;33098;52.400;16.880;2023-05-20T04:34:13;101865.81;;;14.33;75.38
24336;BME280;33098;52.400;16.880;2023-05-20T04:36:40;101864.92;;;14.35;75.27
24336;BME280;33098;52.400;16.880;2023-05-20T04:39:09;101868.58;;;14.37;75.29
24336;BME280;33098;52.400;16.880;2023-05-20T04:41:35;101862.58;;;14.41;75.34
24336;BME280;33098;52.400;16.880;2023-05-20T04:44:05;101859.94;;;14.43;75.16
24336;BME280;33098;52.400;16.880;2023-05-20T04:46:31;101865.34;;;14.42;75.09
24336;BME280;33098;52.400;16.880;2023-05-20T04:48:59;101864.78;;;14.42;75.12
24336;BME280;33098;52.400;16.880;2023-05-20T04:51:27;101863.02;;;14.44;75.03
24336;BME280;33098;52.400;16.880;2023-05-20T04:53:54;101862.12;;;14.47;74.99
24336;BME280;33098;52.400;16.880;2023-05-20T04:56:24;101863.05;;;14.46;75.03
24336;BME280;33098;52.400;16.880;2023-05-20T04:58:52;101864.70;;;14.48;74.98
24336;BME280;33098;52.400;16.880;2023-05-20T05:01:23;101867.09;;;14.47;74.92
24336;BME280;33098;52.400;16.880;2023-05-20T05:03:50;101866.27;;;14.44;74.81
24336;BME280;33098;52.400;16.880;2023-05-20T05:06:17;101860.20;;;14.43;74.93
24336;BME280;33098;52.400;16.880;2023-05-20T05:08:45;101858.95;;;14.46;75.05
24336;BME280;33098;52.400;16.880;2023-05-20T05:11:11;101859.70;;;14.50;75.10
24336;BME280;33098;52.400;16.880;2023-05-20T05:13:39;101861.14;;;14.53;75.02
24336;BME280;33098;52.400;16.880;2023-05-20T05:16:06;101859.17;;;14.51;75.00
24336;BME280;33098;52.400;16.880;2023-05-20T05:18:33;101860.27;;;14.50;75.00
24336;BME280;33098;52.400;16.880;2023-05-20T05:21:03;101859.94;;;14.52;75.03
24336;BME280;33098;52.400;16.880;2023-05-20T05:23:32;101863.08;;;14.56;75.07
24336;BME280;33098;52.400;16.880;2023-05-20T05:25:58;101865.94;;;14.59;75.03
24336;BME280;33098;52.400;16.880;2023-05-20T05:28:28;101865.23;;;14.59;75.01
24336;BME280;33098;52.400;16.880;2023-05-20T05:30:57;101870.80;;;14.60;74.98
24336;BME280;33098;52.400;16.880;2023-05-20T05:33:24;101870.28;;;14.63;74.95
24336;BME280;33098;52.400;16.880;2023-05-20T05:35:50;101872.41;;;14.66;75.00
24336;BME280;33098;52.400;16.880;2023-05-20T05:38:18;101867.01;;;14.66;74.84
24336;BME280;33098;52.400;16.880;2023-05-20T05:40:48;101868.89;;;14.65;74.80
24336;BME280;33098;52.400;16.880;2023-05-20T05:43:18;101866.67;;;14.66;74.89
24336;BME280;33098;52.400;16.880;2023-05-20T05:45:48;101871.00;;;14.68;74.82
24336;BME280;33098;52.400;16.880;2023-05-20T05:48:14;101871.70;;;14.63;74.72
24336;BME280;33098;52.400;16.880;2023-05-20T05:50:44;101868.15;;;14.62;74.86
24336;BME280;33098;52.400;16.880;2023-05-20T05:53:14;101869.39;;;14.65;74.96
24336;BME280;33098;52.400;16.880;2023-05-20T05:55:46;101866.61;;;14.69;74.96
24336;BME280;33098;52.400;16.880;2023-05-20T05:58:13;101864.03;;;14.75;74.91
24336;BME280;33098;52.400;16.880;2023-05-20T06:00:43;101867.41;;;14.80;74.87
24336;BME280;33098;52.400;16.880;2023-05-20T06:03:30;101866.02;;;14.82;74.72
24336;BME280;33098;52.400;16.880;2023-05-20T06:05:57;101867.01;;;14.83;74.64
24336;BME280;33098;52.400;16.880;2023-05-20T06:08:24;101874.56;;;14.82;74.53
24336;BME280;33098;52.400;16.880;2023-05-20T06:10:51;101871.23;;;14.84;74.54
24336;BME280;33098;52.400;16.880;2023-05-20T06:13:19;101869.94;;;14.86;74.52
24336;BME280;33098;52.400;16.880;2023-05-20T06:15:49;101872.22;;;14.90;74.52
24336;BME280;33098;52.400;16.880;2023-05-20T06:18:16;101873.63;;;14.91;74.43
24336;BME280;33098;52.400;16.880;2023-05-20T06:20:43;101867.88;;;14.94;74.49
24336;BME280;33098;52.400;16.880;2023-05-20T06:23:10;101870.52;;;14.98;74.38
24336;BME280;33098;52.400;16.880;2023-05-20T06:25:57;101873.09;;;15.05;74.35
24336;BME280;33098;52.400;16.880;2023-05-20T06:28:33;101872.27;;;15.09;74.20
24336;BME280;33098;52.400;16.880;2023-05-20T06:31:05;101877.71;;;15.12;74.14
24336;BME280;33098;52.400;16.880;2023-05-20T06:33:33;101877.46;;;15.13;74.06
24336;BME280;33098;52.400;16.880;2023-05-20T06:36:07;101880.80;;;15.14;73.88
24336;BME280;33098;52.400;16.880;2023-05-20T06:38:36;101881.77;;;15.15;73.82
24336;BME280;33098;52.400;16.880;2023-05-20T06:41:03;101879.98;;;15.18;73.81
24336;BME280;33098;52.400;16.880;2023-05-20T06:43:31;101883.68;;;15.18;73.65
24336;BME280;33098;52.400;16.880;2023-05-20T06:46:07;101883.48;;;15.19;73.53
24336;BME280;33098;52.400;16.880;2023-05-20T06:48:37;101881.52;;;15.21;73.57
24336;BME280;33098;52.400;16.880;2023-05-20T06:51:06;101875.70;;;15.27;73.64
24336;BME280;33098;52.400;16.880;2023-05-20T06:53:36;101873.48;;;15.38;73.66
24336;BME280;33098;52.400;16.880;2023-05-20T06:56:03;101874.98;;;15.46;73.52
24336;BME280;33098;52.400;16.880;2023-05-20T06:58:31;101872.20;;;15.50;73.32
24336;BME280;33098;52.400;16.880;2023-05-20T07:00:59;101868.20;;;15.56;73.24
24336;BME280;33098;52.400;16.880;2023-05-20T07:03:32;101864.95;;;15.63;73.21
24336;BME280;33098;52.400;16.880;2023-05-20T07:05:59;101859.94;;;15.68;72.98
24336;BME280;33098;52.400;16.880;2023-05-20T07:08:29;101853.69;;;15.72;72.87
24336;BME280;33098;52.400;16.880;2023-05-20T07:10:56;101856.77;;;15.78;72.74
24336;BME280;33098;52.400;16.880;2023-05-20T07:13:23;101848.65;;;15.81;72.62
24336;BME280;33098;52.400;16.880;2023-05-20T07:15:51;101846.71;;;15.83;72.37
24336;BME280;33098;52.400;16.880;2023-05-20T07:18:20;101838.42;;;15.87;72.48
24336;BME280;33098;52.400;16.880;2023-05-20T07:20:51;101839.25;;;15.92;72.36
24336;BME280;33098;52.400;16.880;2023-05-20T07:23:30;101839.67;;;15.98;72.32
24336;BME280;33098;52.400;16.880;2023-05-20T07:26:01;101835.79;;;16.04;72.24
24336;BME280;33098;52.400;16.880;2023-05-20T07:28:28;101838.52;;;16.12;72.04
24336;BME280;33098;52.400;16.880;2023-05-20T07:30:57;101832.34;;;16.16;71.77
24336;BME280;33098;52.400;16.880;2023-05-20T07:33:30;101836.41;;;16.19;71.69
24336;BME280;33098;52.400;16.880;2023-05-20T07:35:58;101833.59;;;16.25;71.74
24336;BME280;33098;52.400;16.880;2023-05-20T07:38:28;101834.42;;;16.32;71.62
24336;BME280;33098;52.400;16.880;2023-05-20T07:41:03;101827.29;;;16.37;71.41
24336;BME280;33098;52.400;16.880;2023-05-20T07:43:30;101823.53;;;16.41;71.39
24336;BME280;33098;52.400;16.880;2023-05-20T07:46:03;101824.77;;;16.47;71.32
24336;BME280;33098;52.400;16.880;2023-05-20T07:48:30;101827.43;;;16.57;71.27
24336;BME280;33098;52.400;16.880;2023-05-20T07:50:57;101828.17;;;16.63;71.15
24336;BME280;33098;52.400;16.880;2023-05-20T07:53:25;101825.88;;;16.69;70.98
24336;BME280;33098;52.400;16.880;2023-05-20T07:55:53;101819.52;;;16.77;70.88
24336;BME280;33098;52.400;16.880;2023-05-20T07:58:23;101821.34;;;16.87;70.78
24336;BME280;33098;52.400;16.880;2023-05-20T08:00:53;101820.09;;;16.96;70.49
24336;BME280;33098;52.400;16.880;2023-05-20T08:03:20;101816.74;;;17.04;70.39
24336;BME280;33098;52.400;16.880;2023-05-20T08:06:04;101815.45;;;17.13;70.18
24336;BME280;33098;52.400;16.880;2023-05-20T08:08:34;101812.52;;;17.24;70.01
24336;BME280;33098;52.400;16.880;2023-05-20T08:11:06;101807.84;;;17.31;69.82
24336;BME280;33098;52.400;16.880;2023-05-20T08:13:33;101807.46;;;17.37;69.72
24336;BME280;33098;52.400;16.880;2023-05-20T08:16:01;101804.14;;;17.45;69.47
24336;BME280;33098;52.400;16.880;2023-05-20T08:18:31;101796.42;;;17.53;69.37
24336;BME280;33098;52.400;16.880;2023-05-20T08:20:58;101792.96;;;17.64;69.19
24336;BME280;33098;52.400;16.880;2023-05-20T08:23:25;101791.50;;;17.69;68.95
24336;BME280;33098;52.400;16.880;2023-05-20T08:25:54;101795.45;;;17.74;68.85
24336;BME280;33098;52.400;16.880;2023-05-20T08:28:23;101793.56;;;17.86;68.80
24336;BME280;33098;52.400;16.880;2023-05-20T08:30:50;101794.92;;;17.95;68.63
24336;BME280;33098;52.400;16.880;2023-05-20T08:33:20;101794.31;;;18.04;68.36
24336;BME280;33098;52.400;16.880;2023-05-20T08:35:48;101797.97;;;18.16;68.20
24336;BME280;33098;52.400;16.880;2023-05-20T08:38:17;101799.98;;;18.26;68.12
24336;BME280;33098;52.400;16.880;2023-05-20T08:40:54;101799.13;;;18.33;67.97
24336;BME280;33098;52.400;16.880;2023-05-20T08:43:23;101801.92;;;18.38;67.59
24336;BME280;33098;52.400;16.880;2023-05-20T08:45:50;101805.20;;;18.39;67.28
24336;BME280;33098;52.400;16.880;2023-05-20T08:48:26;101799.77;;;18.38;67.19
24336;BME280;33098;52.400;16.880;2023-05-20T08:50:56;101800.50;;;18.43;67.31
24336;BME280;33098;52.400;16.880;2023-05-20T08:53:22;101797.45;;;18.48;67.20
24336;BME280;33098;52.400;16.880;2023-05-20T08:55:56;101799.23;;;18.52;67.02
24336;BME280;33098;52.400;16.880;2023-05-20T08:58:29;101792.67;;;18.55;66.79
24336;BME280;33098;52.400;16.880;2023-05-20T09:00:56;101792.12;;;18.55;66.63
24336;BME280;33098;52.400;16.880;2023-05-20T09:03:24;101788.97;;;18.58;66.49
24336;BME280;33098;52.400;16.880;2023-05-20T09:05:52;101784.35;;;18.63;66.46
24336;BME280;33098;52.400;16.880;2023-05-20T09:08:23;101791.76;;;18.69;66.44
24336;BME280;33098;52.400;16.880;2023-05-20T09:10:52;101787.98;;;18.74;66.36
24336;BME280;33098;52.400;16.880;2023-05-20T09:13:26;101792.84;;;18.81;66.11
24336;BME280;33098;52.400;16.880;2023-05-20T09:15:53;101793.49;;;18.85;65.98
24336;BME280;33098;52.400;16.880;2023-05-20T09:18:19;101799.61;;;18.89;65.82
24336;BME280;33098;52.400;16.880;2023-05-20T09:20:53;101801.64;;;18.95;65.67
24336;BME280;33098;52.400;16.880;2023-05-20T09:23:21;101799.86;;;18.89;65.30
24336;BME280;33098;52.400;16.880;2023-05-20T09:25:49;101801.41;;;18.85;65.24
24336;BME280;33098;52.400;16.880;2023-05-20T09:28:22;101799.57;;;18.86;65.14
24336;BME280;33098;52.400;16.880;2023-05-20T09:30:55;101792.58;;;18.85;65.20
24336;BME280;33098;52.400;16.880;2023-05-20T09:33:28;101790.73;;;18.80;64.95
24336;BME280;33098;52.400;16.880;2023-05-20T09:36:15;101792.20;;;18.75;65.09
24336;BME280;33098;52.400;16.880;2023-05-20T09:38:45;101794.38;;;18.75;65.12
24336;BME280;33098;52.400;16.880;2023-05-20T09:41:14;101797.10;;;18.77;65.13
24336;BME280;33098;52.400;16.880;2023-05-20T09:43:42;101799.91;;;18.80;65.08
24336;BME280;33098;52.400;16.880;2023-05-20T09:46:10;101796.05;;;18.78;65.01
24336;BME280;33098;52.400;16.880;2023-05-20T09:48:37;101792.91;;;18.78;65.03
24336;BME280;33098;52.400;16.880;2023-05-20T09:51:10;101785.29;;;18.76;64.86
24336;BME280;33098;52.400;16.880;2023-05-20T09:53:41;101790.56;;;18.72;64.88
24336;BME280;33098;52.400;16.880;2023-05-20T09:56:08;101786.73;;;18.69;64.75
24336;BME280;33098;52.400;16.880;2023-05-20T09:58:43;101789.79;;;18.65;64.93
24336;BME280;33098;52.400;16.880;2023-05-20T10:01:16;101787.86;;;18.56;64.84
24336;BME280;33098;52.400;16.880;2023-05-20T10:03:43;101789.04;;;18.47;65.06
24336;BME280;33098;52.400;16.880;2023-05-20T10:11:46;101782.42;;;18.49;65.50
24336;BME280;33098;52.400;16.880;2023-05-20T10:19:44;101774.98;;;18.69;65.75
24336;BME280;33098;52.400;16.880;2023-05-20T10:22:12;101770.61;;;18.82;65.65
24336;BME280;33098;52.400;16.880;2023-05-20T10:24:45;101765.94;;;18.94;65.60
24336;BME280;33098;52.400;16.880;2023-05-20T10:27:17;101766.77;;;19.04;65.39
24336;BME280;33098;52.400;16.880;2023-05-20T10:29:53;101765.82;;;19.14;65.29
24336;BME280;33098;52.400;16.880;2023-05-20T10:32:26;101764.65;;;19.23;65.09
24336;BME280;33098;52.400;16.880;2023-05-20T10:35:03;101759.40;;;19.29;64.89
24336;BME280;33098;52.400;16.880;2023-05-20T10:37:43;101758.49;;;19.39;64.80
24336;BME280;33098;52.400;16.880;2023-05-20T10:40:15;101747.19;;;19.52;64.75
24336;BME280;33098;52.400;16.880;2023-05-20T10:42:43;101748.31;;;19.62;64.28
24336;BME280;33098;52.400;16.880;2023-05-20T10:45:11;101747.45;;;19.69;64.10
24336;BME280;33098;52.400;16.880;2023-05-20T10:47:52;101752.92;;;19.76;63.99
24336;BME280;33098;52.400;16.880;2023-05-20T10:53:10;101746.96;;;19.95;63.69
24336;BME280;33098;52.400;16.880;2023-05-20T10:55:47;101749.08;;;20.03;63.51
24336;BME280;33098;52.400;16.880;2023-05-20T10:58:18;101748.83;;;20.15;63.25
24336;BME280;33098;52.400;16.880;2023-05-20T11:00:47;101742.39;;;20.25;63.24
24336;BME280;33098;52.400;16.880;2023-05-20T11:03:16;101741.58;;;20.39;63.20
24336;BME280;33098;52.400;16.880;2023-05-20T11:05:46;101740.96;;;20.49;62.87
24336;BME280;33098;52.400;16.880;2023-05-20T11:08:13;101741.63;;;20.55;62.74
24336;BME280;33098;52.400;16.880;2023-05-20T11:10:45;101738.11;;;20.63;62.67
24336;BME280;33098;52.400;16.880;2023-05-20T11:13:13;101735.02;;;20.63;62.05
24336;BME280;33098;52.400;16.880;2023-05-20T11:15:42;101734.08;;;20.56;61.98
24336;BME280;33098;52.400;16.880;2023-05-20T11:18:13;101736.58;;;20.60;62.17
24336;BME280;33098;52.400;16.880;2023-05-20T11:20:41;101735.25;;;20.62;61.92
24336;BME280;33098;52.400;16.880;2023-05-20T11:23:13;101732.02;;;20.66;61.70
24336;BME280;33098;52.400;16.880;2023-05-20T11:25:40;101729.95;;;20.70;61.47
24336;BME280;33098;52.400;16.880;2023-05-20T11:28:11;101726.06;;;20.64;61.36
24336;BME280;33098;52.400;16.880;2023-05-20T11:30:41;101715.52;;;20.72;61.49
24336;BME280;33098;52.400;16.880;2023-05-20T11:33:12;101708.39;;;20.89;61.34
24336;BME280;33098;52.400;16.880;2023-05-20T11:35:49;101707.75;;;21.09;61.07
24336;BME280;33098;52.400;16.880;2023-05-20T11:38:21;101705.04;;;21.25;61.00
24336;BME280;33098;52.400;16.880;2023-05-20T11:40:54;101700.90;;;21.44;60.87
24336;BME280;33098;52.400;16.880;2023-05-20T11:43:22;101698.77;;;21.58;60.51
24336;BME280;33098;52.400;16.880;2023-05-20T11:45:54;101698.69;;;21.77;60.44
24336;BME280;33098;52.400;16.880;2023-05-20T11:48:25;101696.62;;;22.10;60.30
24336;BME280;33098;52.400;16.880;2023-05-20T11:50:55;101700.64;;;22.45;59.67
24336;BME280;33098;52.400;16.880;2023-05-20T11:53:25;101702.67;;;22.74;59.27
24336;BME280;33098;52.400;16.880;2023-05-20T11:56:01;101700.55;;;22.97;58.92
24336;BME280;33098;52.400;16.880;2023-05-20T11:58:31;101696.36;;;23.28;58.60
24336;BME280;33098;52.400;16.880;2023-05-20T12:00:58;101692.83;;;23.58;58.16
24336;BME280;33098;52.400;16.880;2023-05-20T12:03:25;101688.06;;;23.88;57.68
24336;BME280;33098;52.400;16.880;2023-05-20T12:06:00;101680.61;;;24.20;57.09
24336;BME280;33098;52.400;16.880;2023-05-20T12:08:30;101683.98;;;24.39;56.55
24336;BME280;33098;52.400;16.880;2023-05-20T12:11:06;101688.26;;;24.58;56.03
24336;BME280;33098;52.400;16.880;2023-05-20T12:13:33;101689.69;;;24.64;55.57
24336;BME280;33098;52.400;16.880;2023-05-20T12:16:06;101685.27;;;24.60;54.97
24336;BME280;33098;52.400;16.880;2023-05-20T12:18:39;101684.37;;;24.66;54.90
24336;BME280;33098;52.400;16.880;2023-05-20T12:21:14;101687.84;;;24.90;55.02
24336;BME280;33098;52.400;16.880;2023-05-20T12:23:47;101690.35;;;25.26;54.70
24336;BME280;33098;52.400;16.880;2023-05-20T12:26:18;101688.02;;;25.48;54.01
24336;BME280;33098;52.400;16.880;2023-05-20T12:28:47;101687.84;;;25.57;53.46
24336;BME280;33098;52.400;16.880;2023-05-20T12:31:18;101685.84;;;25.61;52.99
24336;BME280;33098;52.400;16.880;2023-05-20T12:33:47;101677.86;;;25.56;52.61
24336;BME280;33098;52.400;16.880;2023-05-20T12:36:15;101667.73;;;25.62;52.42
24336;BME280;33098;52.400;16.880;2023-05-20T12:38:45;101668.19;;;25.69;52.29
24336;BME280;33098;52.400;16.880;2023-05-20T12:41:16;101660.55;;;25.80;52.16
24336;BME280;33098;52.400;16.880;2023-05-20T12:43:53;101657.58;;;25.92;51.94
24336;BME280;33098;52.400;16.880;2023-05-20T12:46:23;101655.89;;;26.12;51.78
24336;BME280;33098;52.400;16.880;2023-05-20T12:48:52;101653.86;;;26.38;51.51
24336;BME280;33098;52.400;16.880;2023-05-20T12:51:22;101648.02;;;26.53;51.18
24336;BME280;33098;52.400;16.880;2023-05-20T12:53:50;101643.58;;;26.66;50.92
24336;BME280;33098;52.400;16.880;2023-05-20T12:56:21;101641.00;;;26.99;50.77
24336;BME280;33098;52.400;16.880;2023-05-20T12:58:51;101640.35;;;27.32;50.15
24336;BME280;33098;52.400;16.880;2023-05-20T13:01:18;101635.94;;;27.62;49.80
24336;BME280;33098;52.400;16.880;2023-05-20T13:03:45;101644.09;;;27.88;49.48
24336;BME280;33098;52.400;16.880;2023-05-20T13:06:21;101631.95;;;28.17;49.11